createdAt,value
2018-07-01T00:01:08.447Z,22.42
2018-07-01T00:04:33.396Z,22.36
2018-07-01T00:07:58.011Z,22.37
2018-07-01T00:11:22.432Z,22.25
2018-07-01T00:14:46.859Z,22.09
2018-07-01T00:18:11.307Z,22.14
2018-07-01T00:21:35.789Z,22.13
2018-07-01T00:25:00.204Z,22.03
2018-07-01T00:28:24.664Z,22.01
2018-07-01T00:31:49.085Z,22.00
2018-07-01T00:35:13.501Z,21.87
2018-07-01T00:38:37.974Z,21.85
2018-07-01T00:42:02.372Z,21.73
2018-07-01T00:45:26.907Z,21.89
2018-07-01T00:48:51.470Z,21.70
2018-07-01T00:52:16.019Z,21.74
2018-07-01T00:55:40.789Z,21.54
2018-07-01T00:59:05.394Z,21.42
2018-07-01T01:02:29.875Z,21.53
2018-07-01T01:05:54.507Z,21.34
2018-07-01T01:09:19.058Z,21.18
2018-07-01T01:12:43.663Z,21.19
2018-07-01T01:16:08.518Z,21.17
2018-07-01T01:19:32.962Z,21.09
2018-07-01T01:22:57.503Z,21.10
2018-07-01T01:26:22.795Z,20.99
2018-07-01T01:29:47.424Z,21.06
2018-07-01T01:33:11.904Z,20.99
2018-07-01T01:36:37.692Z,20.81
2018-07-01T01:40:02.159Z,20.73
2018-07-01T01:43:32.799Z,20.69
2018-07-01T01:47:01.023Z,20.64
2018-07-01T01:50:29.177Z,20.64
2018-07-01T01:54:00.772Z,20.61
2018-07-01T01:57:29.315Z,20.39
2018-07-01T02:03:04.580Z,20.45
2018-07-01T02:06:32.980Z,20.16
2018-07-01T02:09:57.424Z,20.13
2018-07-01T02:13:21.885Z,20.13
2018-07-01T02:16:54.032Z,20.13
2018-07-01T02:20:20.704Z,20.15
2018-07-01T02:23:48.703Z,20.01
2018-07-01T02:27:13.201Z,19.88
2018-07-01T02:30:37.709Z,19.84
2018-07-01T02:34:02.286Z,19.90
2018-07-01T02:37:26.870Z,20.01
2018-07-01T02:40:51.422Z,19.95
2018-07-01T02:44:15.566Z,20.02
2018-07-01T02:47:40.083Z,19.83
2018-07-01T02:51:04.669Z,19.82
2018-07-01T02:54:29.298Z,19.70
2018-07-01T02:57:53.643Z,19.62
2018-07-01T03:01:18.269Z,19.64
2018-07-01T03:04:42.718Z,19.61
2018-07-01T03:08:07.838Z,19.53
2018-07-01T03:11:32.371Z,19.54
2018-07-01T03:14:56.870Z,19.47
2018-07-01T03:18:21.425Z,19.44
2018-07-01T03:21:45.970Z,19.38
2018-07-01T03:25:10.539Z,19.40
2018-07-01T03:28:35.029Z,19.36
2018-07-01T03:31:59.837Z,19.34
2018-07-01T03:35:24.400Z,19.28
2018-07-01T03:38:48.967Z,19.19
2018-07-01T03:42:13.567Z,19.23
2018-07-01T03:45:38.491Z,19.17
2018-07-01T03:49:02.979Z,19.20
2018-07-01T03:52:27.479Z,19.13
2018-07-01T03:55:52.005Z,19.18
2018-07-01T03:59:16.558Z,19.33
2018-07-01T04:02:41.121Z,19.13
2018-07-01T04:06:06.065Z,19.25
2018-07-01T04:09:34.026Z,19.23
2018-07-01T04:12:58.491Z,19.25
2018-07-01T04:16:22.919Z,19.27
2018-07-01T04:19:47.388Z,19.20
2018-07-01T04:23:11.948Z,19.28
2018-07-01T04:26:36.358Z,19.34
2018-07-01T04:30:00.898Z,19.39
2018-07-01T04:33:25.339Z,19.37
2018-07-01T04:36:49.750Z,19.44
2018-07-01T04:40:14.202Z,19.47
2018-07-01T04:43:38.657Z,19.54
2018-07-01T04:47:03.164Z,19.52
2018-07-01T04:50:27.612Z,19.55
2018-07-01T04:53:52.039Z,19.64
2018-07-01T04:57:16.573Z,19.86
2018-07-01T05:00:41.070Z,19.60
2018-07-01T05:04:05.718Z,19.79
2018-07-01T05:07:30.280Z,19.75
2018-07-01T05:10:55.433Z,19.93
2018-07-01T05:14:19.910Z,19.94
2018-07-01T05:17:44.423Z,20.04
2018-07-01T05:21:08.877Z,20.08
2018-07-01T05:24:33.220Z,20.07
2018-07-01T05:27:57.686Z,20.09
2018-07-01T05:31:22.739Z,20.12
2018-07-01T05:34:47.189Z,20.13
2018-07-01T05:38:11.733Z,20.25
2018-07-01T05:41:36.207Z,20.24
2018-07-01T05:45:00.690Z,20.36
2018-07-01T05:48:25.840Z,20.60
2018-07-01T05:51:50.284Z,20.56
2018-07-01T05:55:14.852Z,20.55
2018-07-01T05:58:39.371Z,20.67
2018-07-01T06:02:03.968Z,20.77
2018-07-01T06:05:28.578Z,20.73
2018-07-01T06:08:53.204Z,20.91
2018-07-01T06:12:17.816Z,21.04
2018-07-01T06:15:42.353Z,21.01
2018-07-01T06:19:07.314Z,21.09
2018-07-01T06:22:31.770Z,21.11
2018-07-01T06:26:02.360Z,21.21
2018-07-01T06:29:26.894Z,21.33
2018-07-01T06:32:51.417Z,21.49
2018-07-01T06:36:15.875Z,21.52
2018-07-01T06:39:40.398Z,21.58
2018-07-01T06:43:04.947Z,21.67
2018-07-01T06:46:29.559Z,21.86
2018-07-01T06:49:54.154Z,21.93
2018-07-01T06:53:19.565Z,21.84
2018-07-01T06:56:44.060Z,21.94
2018-07-01T07:00:08.585Z,22.05
2018-07-01T07:03:33.150Z,22.19
2018-07-01T07:06:57.761Z,22.39
2018-07-01T07:10:22.824Z,22.37
2018-07-01T07:13:47.388Z,22.57
2018-07-01T07:17:11.914Z,22.66
2018-07-01T07:20:37.854Z,22.69
2018-07-01T07:24:02.520Z,22.90
2018-07-01T07:27:26.967Z,23.00
2018-07-01T07:30:51.439Z,23.08
2018-07-01T07:34:15.844Z,23.20
2018-07-01T07:37:41.010Z,23.23
2018-07-01T07:41:05.491Z,23.23
2018-07-01T07:44:29.975Z,23.41
2018-07-01T07:47:54.444Z,23.45
2018-07-01T07:51:18.991Z,23.70
2018-07-01T07:54:43.435Z,23.84
2018-07-01T07:58:07.844Z,24.04
2018-07-01T08:01:32.324Z,24.05
2018-07-01T08:04:57.020Z,24.18
2018-07-01T08:08:21.494Z,24.27
2018-07-01T08:11:45.985Z,24.28
2018-07-01T08:15:10.448Z,24.50
2018-07-01T08:18:35.023Z,24.67
2018-07-01T08:21:59.604Z,24.72
2018-07-01T08:25:24.964Z,24.71
2018-07-01T08:28:49.370Z,24.93
2018-07-01T08:32:13.789Z,25.09
2018-07-01T08:35:38.272Z,25.21
2018-07-01T08:39:02.840Z,25.29
2018-07-01T08:42:28.514Z,25.30
2018-07-01T08:45:53.016Z,25.42
2018-07-01T08:49:17.462Z,25.44
2018-07-01T08:52:41.885Z,25.55
2018-07-01T08:56:06.615Z,25.64
2018-07-01T08:59:31.008Z,25.61
2018-07-01T09:02:55.465Z,25.68
2018-07-01T09:06:19.838Z,25.69
2018-07-01T09:09:44.255Z,25.83
2018-07-01T09:13:08.817Z,26.09
2018-07-01T09:16:33.321Z,26.21
2018-07-01T09:19:57.774Z,26.60
2018-07-01T09:23:22.383Z,26.75
2018-07-01T09:26:47.043Z,26.87
2018-07-01T09:30:11.485Z,27.01
2018-07-01T09:33:36.049Z,27.04
2018-07-01T09:37:00.567Z,27.03
2018-07-01T09:40:25.081Z,27.39
2018-07-01T09:43:49.620Z,27.72
2018-07-01T09:47:14.215Z,28.04
2018-07-01T09:50:38.787Z,28.07
2018-07-01T09:54:03.919Z,28.22
2018-07-01T09:57:28.368Z,27.80
2018-07-01T10:00:52.886Z,27.97
2018-07-01T10:04:17.448Z,28.36
2018-07-01T10:07:41.844Z,28.68
2018-07-01T10:11:06.059Z,28.99
2018-07-01T10:14:30.630Z,29.43
2018-07-01T10:17:55.178Z,29.78
2018-07-01T10:21:19.755Z,29.63
2018-07-01T10:24:44.260Z,30.00
2018-07-01T10:28:08.737Z,30.19
2018-07-01T10:31:33.821Z,30.23
2018-07-01T10:34:59.035Z,30.81
2018-07-01T10:38:24.238Z,30.26
2018-07-01T10:41:49.289Z,30.25
2018-07-01T10:45:15.374Z,30.20
2018-07-01T10:48:40.254Z,30.40
2018-07-01T10:52:05.157Z,30.47
2018-07-01T10:55:30.540Z,31.12
2018-07-01T10:58:55.476Z,31.69
2018-07-01T11:02:20.340Z,31.61
2018-07-01T11:05:46.879Z,31.45
2018-07-01T11:09:12.880Z,32.39
2018-07-01T11:12:37.426Z,32.96
2018-07-01T11:16:02.240Z,33.21
2018-07-01T11:19:26.694Z,32.51
2018-07-01T11:22:51.104Z,32.45
2018-07-01T11:26:16.412Z,33.42
2018-07-01T11:29:40.910Z,34.11
2018-07-01T11:33:05.368Z,35.31
2018-07-01T11:36:29.857Z,36.18
2018-07-01T11:39:54.315Z,36.67
2018-07-01T11:43:18.841Z,37.38
2018-07-01T11:46:43.305Z,38.31
2018-07-01T11:50:07.875Z,40.01
2018-07-01T11:53:32.465Z,39.83
2018-07-01T11:56:57.005Z,42.24
2018-07-01T12:00:21.552Z,43.35
2018-07-01T12:03:46.079Z,43.42
2018-07-01T12:07:10.582Z,43.33
2018-07-01T12:10:35.125Z,43.99
2018-07-01T12:13:59.676Z,43.37
2018-07-01T12:17:24.168Z,42.72
2018-07-01T12:20:48.712Z,42.25
2018-07-01T12:24:13.331Z,43.19
2018-07-01T12:27:37.835Z,44.26
2018-07-01T12:31:03.530Z,45.23
2018-07-01T12:34:27.938Z,44.89
2018-07-01T12:37:52.401Z,44.62
2018-07-01T12:41:16.832Z,44.32
2018-07-01T12:44:41.231Z,44.59
2018-07-01T12:48:06.115Z,44.95
2018-07-01T12:51:30.582Z,45.50
2018-07-01T12:54:55.037Z,45.85
2018-07-01T12:58:20.349Z,46.53
2018-07-01T13:01:44.782Z,46.65
2018-07-01T13:05:09.272Z,47.09
2018-07-01T13:08:33.739Z,46.03
2018-07-01T13:11:58.243Z,46.34
2018-07-01T13:15:22.651Z,46.92
2018-07-01T13:18:47.182Z,45.40
2018-07-01T13:22:11.958Z,45.53
2018-07-01T13:25:36.483Z,47.04
2018-07-01T13:29:01.192Z,45.35
2018-07-01T13:32:25.599Z,44.86
2018-07-01T13:35:49.775Z,45.02
2018-07-01T13:39:14.235Z,45.27
2018-07-01T13:42:38.812Z,45.63
2018-07-01T13:46:03.735Z,46.20
2018-07-01T13:49:29.308Z,45.44
2018-07-01T13:52:53.990Z,46.18
2018-07-01T13:56:18.411Z,45.36
2018-07-01T13:59:43.042Z,45.48
2018-07-01T14:03:08.233Z,45.09
2018-07-01T14:06:32.784Z,45.26
2018-07-01T14:09:57.705Z,45.47
2018-07-01T14:13:22.162Z,44.59
2018-07-01T14:16:47.122Z,44.98
2018-07-01T14:20:12.119Z,45.05
2018-07-01T14:23:36.770Z,44.69
2018-07-01T14:27:01.363Z,45.98
2018-07-01T14:30:25.709Z,45.03
2018-07-01T14:33:50.164Z,45.11
2018-07-01T14:37:14.706Z,44.74
2018-07-01T14:40:39.295Z,46.08
2018-07-01T14:44:05.381Z,46.27
2018-07-01T14:47:30.739Z,46.73
2018-07-01T14:50:55.454Z,45.01
2018-07-01T14:54:19.881Z,45.96
2018-07-01T14:57:44.298Z,45.96
2018-07-01T15:01:09.868Z,46.62
2018-07-01T15:04:35.119Z,45.79
2018-07-01T15:07:59.591Z,46.54
2018-07-01T15:11:24.150Z,47.08
2018-07-01T15:14:48.607Z,46.58
2018-07-01T15:18:13.340Z,47.08
2018-07-01T15:21:38.091Z,46.33
2018-07-01T15:25:02.575Z,47.16
2018-07-01T15:28:27.538Z,47.16
2018-07-01T15:31:52.107Z,47.01
2018-07-01T15:35:16.648Z,45.99
2018-07-01T15:38:41.533Z,46.37
2018-07-01T15:42:06.394Z,46.01
2018-07-01T15:45:30.970Z,47.34
2018-07-01T15:48:55.594Z,47.12
2018-07-01T15:52:20.384Z,47.64
2018-07-01T15:55:44.914Z,47.00
2018-07-01T15:59:10.299Z,47.25
2018-07-01T16:02:34.981Z,46.00
2018-07-01T16:05:59.718Z,46.52
2018-07-01T16:09:24.307Z,45.28
2018-07-01T16:12:49.055Z,45.57
2018-07-01T16:16:13.546Z,44.95
2018-07-01T16:19:38.090Z,45.51
2018-07-01T16:23:02.737Z,45.20
2018-07-01T16:26:32.544Z,44.63
2018-07-01T16:29:57.269Z,43.60
2018-07-01T16:33:21.830Z,42.71
2018-07-01T16:36:46.524Z,42.16
2018-07-01T16:40:11.076Z,41.35
2018-07-01T16:43:35.627Z,40.38
2018-07-01T16:47:00.200Z,40.09
2018-07-01T16:50:24.825Z,40.44
2018-07-01T16:53:50.987Z,39.74
2018-07-01T16:57:16.824Z,38.92
2018-07-01T17:00:41.286Z,39.71
2018-07-01T17:04:05.835Z,39.19
2018-07-01T17:07:37.390Z,38.90
2018-07-01T17:11:01.914Z,38.37
2018-07-01T17:14:27.617Z,37.55
2018-07-01T17:17:52.042Z,36.71
2018-07-01T17:21:17.280Z,35.85
2018-07-01T17:24:43.389Z,35.04
2018-07-01T17:28:07.889Z,34.13
2018-07-01T17:31:37.570Z,33.59
2018-07-01T17:35:01.983Z,33.39
2018-07-01T17:38:26.594Z,33.04
2018-07-01T17:41:51.321Z,32.72
2018-07-01T17:45:15.847Z,32.31
2018-07-01T17:48:40.427Z,31.84
2018-07-01T17:52:04.931Z,31.40
2018-07-01T17:55:29.447Z,31.23
2018-07-01T17:58:54.630Z,31.34
2018-07-01T18:02:19.317Z,31.05
2018-07-01T18:05:43.844Z,30.98
2018-07-01T18:09:09.647Z,31.05
2018-07-01T18:12:34.113Z,30.83
2018-07-01T18:15:58.576Z,30.61
2018-07-01T18:19:23.000Z,30.18
2018-07-01T18:23:18.241Z,30.31
2018-07-01T18:26:12.097Z,29.94
2018-07-01T18:29:36.489Z,29.72
2018-07-01T18:33:00.916Z,29.66
2018-07-01T18:36:25.993Z,29.66
2018-07-01T18:39:50.440Z,29.64
2018-07-01T18:43:15.724Z,29.64
2018-07-01T18:46:41.295Z,29.40
2018-07-01T18:50:07.277Z,29.22
2018-07-01T18:53:33.232Z,29.16
2018-07-01T18:56:58.541Z,29.23
2018-07-01T19:00:24.186Z,28.90
2018-07-01T19:03:49.121Z,28.47
2018-07-01T19:07:13.682Z,28.63
2018-07-01T19:10:41.062Z,28.67
2018-07-01T19:14:07.314Z,28.47
2018-07-01T19:17:31.974Z,28.45
2018-07-01T19:20:56.603Z,28.13
2018-07-01T19:24:22.079Z,28.13
2018-07-01T19:27:46.523Z,28.09
2018-07-01T19:31:10.991Z,27.92
2018-07-01T19:34:37.956Z,27.63
2018-07-01T19:38:02.700Z,27.63
2018-07-01T19:41:28.759Z,27.54
2018-07-01T19:44:53.865Z,27.52
2018-07-01T19:48:20.832Z,27.27
2018-07-01T19:51:46.129Z,27.40
2018-07-01T19:55:11.566Z,27.17
2018-07-01T19:58:37.596Z,27.15
2018-07-01T20:02:02.772Z,27.12
2018-07-01T20:05:28.074Z,27.07
2018-07-01T20:08:53.268Z,26.92
2018-07-01T20:12:20.078Z,26.89
2018-07-01T20:15:44.304Z,26.68
2018-07-01T20:19:08.897Z,26.58
2018-07-01T20:22:33.996Z,26.56
2018-07-01T20:25:59.481Z,26.50
2018-07-01T20:29:25.051Z,26.41
2018-07-01T20:32:51.210Z,26.29
2018-07-01T20:36:16.552Z,26.54
2018-07-01T20:39:41.004Z,26.39
2018-07-01T20:43:05.815Z,26.06
2018-07-01T20:46:30.969Z,26.03
2018-07-01T20:49:56.384Z,26.09
2018-07-01T20:53:20.987Z,25.85
2018-07-01T20:56:45.629Z,25.66
2018-07-01T21:00:10.158Z,25.45
2018-07-01T21:03:34.615Z,25.32
2018-07-01T21:06:59.093Z,25.04
2018-07-01T21:10:23.569Z,25.10
2018-07-01T21:13:47.964Z,24.83
2018-07-01T21:17:12.398Z,24.91
2018-07-01T21:20:36.945Z,24.66
2018-07-01T21:24:01.485Z,24.63
2018-07-01T21:27:25.924Z,24.51
2018-07-01T21:30:50.583Z,24.47
2018-07-01T21:34:15.080Z,24.38
2018-07-01T21:37:39.642Z,24.31
2018-07-01T21:41:04.070Z,24.23
2018-07-01T21:44:30.477Z,24.21
2018-07-01T21:47:54.967Z,24.00
2018-07-01T21:51:19.606Z,23.91
2018-07-01T21:54:44.082Z,23.94
2018-07-01T21:58:08.593Z,23.94
2018-07-01T22:01:33.030Z,23.85
2018-07-01T22:04:57.499Z,23.69
2018-07-01T22:08:21.980Z,23.73
2018-07-01T22:12:04.236Z,23.63
2018-07-01T22:15:45.615Z,23.54
2018-07-01T22:19:10.180Z,23.54
2018-07-01T22:22:34.735Z,23.33
2018-07-01T22:25:59.316Z,23.30
2018-07-01T22:29:24.005Z,23.19
2018-07-01T22:32:49.146Z,23.15
2018-07-01T22:36:13.736Z,23.12
2018-07-01T22:39:38.988Z,22.93
2018-07-01T22:43:03.507Z,22.82
2018-07-01T22:46:28.000Z,22.74
2018-07-01T22:49:52.566Z,22.56
2018-07-01T22:53:17.297Z,22.46
2018-07-01T22:56:41.838Z,22.24
2018-07-01T23:00:07.036Z,22.13
2018-07-01T23:03:32.603Z,22.15
2018-07-01T23:06:57.022Z,22.03
2018-07-01T23:10:22.710Z,22.06
2018-07-01T23:13:47.178Z,22.05
2018-07-01T23:17:11.686Z,21.96
2018-07-01T23:20:36.138Z,21.78
2018-07-01T23:24:00.570Z,21.90
2018-07-01T23:27:25.016Z,21.84
2018-07-01T23:30:49.450Z,21.67
2018-07-01T23:34:13.904Z,21.67
2018-07-01T23:37:38.744Z,21.51
2018-07-01T23:41:03.209Z,21.34
2018-07-01T23:44:27.642Z,21.32
2018-07-01T23:47:52.129Z,21.34
2018-07-01T23:51:16.571Z,21.10
2018-07-01T23:54:41.004Z,20.94
2018-07-01T23:58:05.641Z,20.99
